Time;durP1;ratioP1;P1;durP2;ratioP2;P2;SDS_P1;SDS_P2;PMS_P1;PMS_P2;Temp;Humidity;BMP_temperature;BMP_pressure;BME280_temperature;BME280_humidity;BME280_pressure;Samples;Min_cycle;Max_cycle;Signal;HPM_P1;HPM_P2
2023/04/03 00:00:50;;;;;;;7.10;2.80;;;;;;;0.50;82.06;99687.96;107576;1308;22729;-41
2023/04/03 00:03:16;;;;;;;4.80;2.20;;;;;;;0.53;81.89;99688.46;107734;1308;22274;-41
2023/04/03 00:05:41;;;;;;;9.10;2.90;;;;;;;0.50;81.46;99692.79;107769;1308;22243;-42
2023/04/03 00:08:09;;;;;;;5.20;2.20;;;;;;;0.41;81.65;99691.30;107748;1308;22426;-42
2023/04/03 00:10:34;;;;;;;;;;;;;;;0.44;81.82;99695.42;107759;1308;23346;-41
2023/04/03 00:13:00;;;;;;;7.30;2.40;;;;;;;0.42;81.66;99693.90;107746;1308;22282;-39
2023/04/03 00:15:25;;;;;;;5.80;2.40;;;;;;;0.33;81.35;99696.38;107737;1308;22207;-39
2023/04/03 00:17:50;;;;;;;5.30;2.00;;;;;;;0.44;81.15;99700.42;107749;1308;23228;-41
2023/04/03 00:20:16;;;;;;;5.40;2.10;;;;;;;0.44;81.30;99698.02;107448;1308;22410;-41
2023/04/03 00:22:41;;;;;;;7.60;2.40;;;;;;;0.41;81.16;99703.55;107749;1308;22292;-40
2023/04/03 00:25:07;;;;;;;7.90;2.60;;;;;;;0.33;80.85;99706.73;107769;1308;22984;-41
2023/04/03 00:27:32;;;;;;;9.20;3.00;;;;;;;0.38;81.05;99706.50;107744;1308;22237;-42
2023/04/03 00:29:58;;;;;;;9.20;2.40;;;;;;;0.40;80.74;99704.25;107752;1308;22238;-39
2023/04/03 00:32:23;;;;;;;10.30;2.80;;;;;;;0.30;80.70;99710.71;107720;1308;23218;-41
2023/04/03 00:34:48;;;;;;;9.50;2.70;;;;;;;0.28;80.64;99711.23;107733;1308;22173;-40
2023/04/03 00:37:13;;;;;;;9.40;3.00;;;;;;;0.23;80.39;99710.75;107743;1308;22211;-39
2023/04/03 00:39:39;;;;;;;9.00;3.00;;;;;;;0.24;80.99;99714.88;107750;1308;23210;-38
2023/04/03 00:42:04;;;;;;;10.30;3.10;;;;;;;0.15;80.86;99717.35;107749;1308;23485;-39
2023/04/03 00:44:33;;;;;;;10.30;2.90;;;;;;;0.21;81.10;99714.20;107750;1308;22779;-39
2023/04/03 00:46:58;;;;;;;10.80;2.90;;;;;;;0.12;80.78;99713.75;107745;1308;22247;-40
2023/04/03 00:49:25;;;;;;;6.90;2.40;;;;;;;0.18;80.90;99715.44;107783;1308;22414;-39
2023/04/03 00:51:50;;;;;;;6.20;2.30;;;;;;;0.13;80.47;99717.20;107769;1308;22249;-43
2023/04/03 00:54:16;;;;;;;5.70;2.30;;;;;;;0.17;80.35;99718.73;107765;1308;23149;-42
2023/04/03 00:56:43;;;;;;;5.90;2.20;;;;;;;0.14;80.46;99721.52;107744;1308;22402;-42
2023/04/03 00:59:14;;;;;;;5.80;2.20;;;;;;;0.10;80.47;99719.63;107773;1308;22252;-42
2023/04/03 01:01:40;;;;;;;5.70;2.50;;;;;;;0.14;80.73;99714.27;107747;1308;22451;-39
2023/04/03 01:04:26;;;;;;;11.20;2.30;;;;;;;0.14;80.49;99713.92;107770;1308;23129;-41
2023/04/03 01:06:52;;;;;;;5.20;1.90;;;;;;;0.10;80.43;99719.63;107770;1308;22284;-43
2023/04/03 01:09:17;;;;;;;3.30;2.00;;;;;;;0.13;80.21;99717.54;107786;1308;23006;-40
2023/04/03 01:11:42;;;;;;;4.60;1.90;;;;;;;0.08;80.34;99727.05;107728;1308;22521;-42
2023/04/03 01:14:08;;;;;;;6.10;2.80;;;;;;;-0.05;80.23;99725.23;107739;1308;22304;-40
2023/04/03 01:16:33;;;;;;;7.00;2.20;;;;;;;-0.04;80.49;99725.41;107760;1308;22536;-41
2023/04/03 01:19:00;;;;;;;4.10;2.00;;;;;;;-0.06;80.35;99725.06;107732;1308;24293;-40
2023/04/03 01:22:03;;;;;;;6.00;2.40;;;;;;;-0.05;80.77;99723.16;107732;1308;22274;-39
2023/04/03 01:24:38;;;;;;;6.10;2.50;;;;;;;-0.14;80.54;99728.55;107738;1308;23128;-39
2023/04/03 01:27:07;;;;;;;5.60;2.40;;;;;;;-0.20;80.83;99728.75;107764;1308;22465;-42
2023/04/03 01:29:35;;;;;;;5.30;2.30;;;;;;;-0.23;81.15;99729.45;107780;1308;22256;-39
2023/04/03 01:32:01;;;;;;;4.00;2.00;;;;;;;-0.23;81.44;99731.34;107776;1308;22264;-38
2023/04/03 01:34:28;;;;;;;7.60;2.50;;;;;;;-0.27;81.52;99733.60;107786;1308;22423;-39
2023/04/03 01:36:53;;;;;;;8.40;2.00;;;;;;;-0.21;81.34;99737.36;107737;1308;22998;-42
2023/04/03 01:39:19;;;;;;;4.90;2.10;;;;;;;-0.32;81.63;99736.38;107733;1308;23283;-39
2023/04/03 01:41:45;;;;;;;4.70;2.10;;;;;;;-0.29;81.56;99740.15;107750;1308;22255;-41
2023/04/03 01:44:10;;;;;;;3.90;1.90;;;;;;;-0.37;81.32;99742.25;107728;1308;22417;-40
2023/04/03 01:46:37;;;;;;;5.40;1.90;;;;;;;-0.35;81.22;99740.18;107770;1308;22356;-41
2023/04/03 01:49:03;;;;;;;4.90;1.80;;;;;;;-0.30;81.20;99742.58;107759;1308;22810;-41
2023/04/03 01:51:28;;;;;;;4.10;1.70;;;;;;;-0.37;81.08;99742.23;107778;1308;23258;-40
2023/04/03 01:53:54;;;;;;;6.00;1.90;;;;;;;-0.37;81.13;99746.21;107738;1308;23125;-41
2023/04/03 01:56:20;;;;;;;6.40;2.60;;;;;;;-0.41;81.12;99743.30;107764;1308;22292;-41
2023/04/03 01:58:45;;;;;;;6.20;2.40;;;;;;;-0.35;81.35;99743.98;107754;1308;23018;-42
2023/04/03 02:01:10;;;;;;;5.50;2.20;;;;;;;-0.31;81.04;99750.16;107763;1308;22320;-40
2023/04/03 02:03:36;;;;;;;5.50;1.90;;;;;;;-0.41;81.03;99752.09;107737;1308;22479;-40
2023/04/03 02:06:01;;;;;;;5.60;2.00;;;;;;;-0.41;81.07;99753.30;107729;1308;22236;-39
2023/04/03 02:08:27;;;;;;;7.60;1.90;;;;;;;-0.46;81.12;99756.07;107747;1308;23120;-42
2023/04/03 02:10:52;;;;;;;7.10;2.20;;;;;;;-0.51;80.83;99759.02;107747;1308;23101;-40
2023/04/03 02:13:18;;;;;;;3.00;1.80;;;;;;;-0.58;81.31;99757.30;107335;1308;22375;-40
2023/04/03 02:15:45;;;;;;;6.90;1.80;;;;;;;-0.57;81.24;99758.68;107773;1308;23274;-39
2023/04/03 02:18:11;;;;;;;6.10;1.80;;;;;;;-0.58;81.32;99758.52;107760;1308;22413;-39
2023/04/03 02:20:37;;;;;;;3.30;1.80;;;;;;;-0.61;81.49;99758.69;107752;1308;22408;-41
2023/04/03 02:23:03;;;;;;;4.90;2.20;;;;;;;-0.59;81.45;99761.45;107780;1308;22485;-40
2023/04/03 02:25:30;;;;;;;9.20;1.80;;;;;;;-0.58;81.49;99760.92;107752;1308;22411;-41
2023/04/03 02:27:55;;;;;;;;;;;;;;;-0.50;81.26;99760.55;107762;1308;22476;-39
2023/04/03 02:30:21;;;;;;;6.00;2.00;;;;;;;-0.61;81.24;99761.45;107737;1308;22247;-40
2023/04/03 02:32:46;;;;;;;5.30;2.00;;;;;;;-0.55;81.20;99760.74;107747;1308;22242;-38
2023/04/03 02:35:12;;;;;;;3.60;2.00;;;;;;;-0.47;81.64;99762.09;107755;1308;22445;-41
2023/04/03 02:37:37;;;;;;;3.80;1.80;;;;;;;-0.57;80.62;99765.73;107762;1308;22507;-42
2023/04/03 02:40:05;;;;;;;3.50;2.30;;;;;;;-0.51;80.85;99766.25;107734;1308;22362;-39
2023/04/03 02:43:39;;;;;;;6.40;2.30;;;;;;;-0.45;80.75;99772.95;107250;1301;545392;-41
2023/04/03 02:46:05;;;;;;;5.20;2.30;;;;;;;-0.54;80.62;99775.38;107542;1310;23192;-41
2023/04/03 02:48:31;;;;;;;5.20;2.00;;;;;;;-0.66;80.68;99778.67;107529;1310;22545;-36
2023/04/03 02:50:56;;;;;;;3.70;2.00;;;;;;;-0.62;80.47;99777.98;107523;1310;23036;-38
2023/04/03 02:53:22;;;;;;;2.30;1.60;;;;;;;-0.70;80.60;99778.67;107531;1310;22292;-40
2023/04/03 02:55:48;;;;;;;6.30;2.20;;;;;;;-0.69;80.65;99785.73;107539;1310;22427;-41
2023/04/03 02:58:14;;;;;;;4.10;1.60;;;;;;;-0.69;80.12;99786.09;107689;1308;133387;-38
2023/04/03 03:00:39;;;;;;;4.60;1.90;;;;;;;-0.77;80.06;99784.54;107841;1308;22339;-41
2023/04/03 03:03:05;;;;;;;2.80;1.60;;;;;;;-0.74;79.95;99784.72;107815;1308;22212;-40
2023/04/03 03:05:30;;;;;;;8.10;1.90;;;;;;;-0.79;79.89;99791.44;107808;1308;22899;-38
2023/04/03 03:07:56;;;;;;;5.10;1.60;;;;;;;-0.73;80.25;99791.42;107831;1308;22244;-40
2023/04/03 03:10:22;;;;;;;5.80;2.00;;;;;;;-0.72;80.10;99792.11;107831;1308;22856;-41
2023/04/03 03:12:48;;;;;;;4.20;1.70;;;;;;;-0.69;80.10;99796.08;107787;1308;22416;-42
2023/04/03 03:15:13;;;;;;;6.30;1.80;;;;;;;-0.66;80.38;99793.99;107809;1308;22216;-40
2023/04/03 03:17:38;;;;;;;5.80;2.00;;;;;;;-0.64;80.26;99796.76;107790;1308;23212;-40
2023/04/03 03:20:05;;;;;;;7.00;2.40;;;;;;;-0.58;80.29;99795.88;107828;1308;22226;-44
2023/04/03 03:22:31;;;;;;;5.90;2.20;;;;;;;-0.54;80.15;99798.29;107814;1308;22181;-41
2023/04/03 03:24:56;;;;;;;4.70;2.00;;;;;;;-0.68;79.81;99798.64;107813;1308;22462;-41
2023/04/03 03:27:22;;;;;;;6.10;2.40;;;;;;;-0.71;79.95;99799.86;107813;1308;22259;-43
2023/04/03 03:29:47;;;;;;;6.60;2.20;;;;;;;-0.69;80.15;99805.36;107831;1308;22384;-41
2023/04/03 03:32:12;;;;;;;5.80;2.40;;;;;;;-0.74;80.26;99808.98;107820;1308;22528;-41
2023/04/03 03:34:38;;;;;;;4.90;2.70;;;;;;;-0.72;80.03;99808.98;107818;1308;22230;-41
2023/04/03 03:37:04;;;;;;;3.10;2.10;;;;;;;-0.66;80.10;99809.16;107840;1308;22238;-39
2023/04/03 03:39:29;;;;;;;4.10;1.90;;;;;;;-0.69;79.97;99806.73;107807;1308;22515;-40
2023/04/03 03:41:54;;;;;;;3.80;2.30;;;;;;;-0.67;80.07;99805.55;107804;1308;22420;-42
2023/04/03 03:44:20;;;;;;;4.00;2.10;;;;;;;-0.68;80.06;99807.44;107822;1308;22247;-40
2023/04/03 03:46:45;;;;;;;4.50;2.10;;;;;;;-0.56;80.29;99806.03;107833;1308;22763;-42
2023/04/03 03:49:11;;;;;;;5.90;2.10;;;;;;;-0.59;79.77;99812.59;107829;1308;22400;-37
2023/04/03 03:51:37;;;;;;;3.10;1.90;;;;;;;-0.61;79.80;99815.36;107818;1308;22256;-38
2023/04/03 03:54:03;;;;;;;4.70;1.70;;;;;;;-0.71;79.52;99815.19;107806;1308;22420;-42
2023/04/03 03:56:29;;;;;;;3.50;2.00;;;;;;;-0.73;79.18;99813.64;107801;1308;23217;-42
2023/04/03 03:58:56;;;;;;;5.00;2.30;;;;;;;-0.73;78.74;99817.77;107798;1308;22526;-40
2023/04/03 04:01:22;;;;;;;4.40;2.30;;;;;;;-0.71;79.04;99818.97;107793;1308;22602;-39
2023/04/03 04:03:47;;;;;;;5.10;2.50;;;;;;;-0.70;79.07;99820.88;107808;1308;22885;-39
2023/04/03 04:06:12;;;;;;;7.20;3.20;;;;;;;-0.70;79.27;99818.80;107798;1308;22239;-40
2023/04/03 04:08:38;;;;;;;5.40;2.40;;;;;;;-0.73;79.28;99819.33;107789;1308;22265;-40
2023/04/03 04:11:03;;;;;;;6.70;3.70;;;;;;;-0.82;79.18;99820.18;107781;1308;22212;-41
2023/04/03 04:13:28;;;;;;;5.70;2.60;;;;;;;-0.78;79.27;99825.70;107799;1308;22223;-42
2023/04/03 04:15:54;;;;;;;5.00;2.60;;;;;;;-0.76;78.98;99819.84;107779;1308;22471;-39
2023/04/03 04:18:21;;;;;;;5.20;2.70;;;;;;;-0.80;79.06;99825.70;107779;1308;22579;-40
2023/04/03 04:20:46;;;;;;;4.00;2.30;;;;;;;-0.93;79.14;99828.45;107783;1308;22004;-39
2023/04/03 04:23:11;;;;;;;3.00;2.20;;;;;;;-0.95;79.26;99829.83;107806;1298;22244;-42
2023/04/03 04:25:37;;;;;;;3.70;2.00;;;;;;;-0.88;79.21;99834.64;107775;1308;22230;-42
2023/04/03 04:28:02;;;;;;;5.20;2.00;;;;;;;-0.92;79.33;99835.86;107785;1308;23038;-44
2023/04/03 04:30:27;;;;;;;3.70;2.10;;;;;;;-0.93;79.43;99834.30;107810;1308;22338;-39
2023/04/03 04:32:53;;;;;;;7.30;1.80;;;;;;;-0.94;79.19;99834.48;107786;1308;22250;-40
2023/04/03 04:35:18;;;;;;;4.20;1.90;;;;;;;-0.97;79.25;99837.74;107799;1308;22223;-39
2023/04/03 04:37:43;;;;;;;3.30;1.90;;;;;;;-0.98;79.47;99839.47;107773;1308;22435;-41
2023/04/03 04:40:09;;;;;;;12.90;2.90;;;;;;;-1.02;79.43;99840.49;107804;1308;23398;-40
2023/04/03 04:42:34;;;;;;;6.70;2.50;;;;;;;-1.01;79.79;99839.63;107782;1308;22438;-41
2023/04/03 04:45:00;;;;;;;6.40;2.40;;;;;;;-1.00;79.80;99835.85;107750;1301;23314;-42
2023/04/03 04:47:25;;;;;;;7.50;3.20;;;;;;;-0.98;79.43;99844.29;107784;1308;22482;-42
2023/04/03 04:49:50;;;;;;;7.80;3.00;;;;;;;-0.90;79.57;99846.70;107780;1308;24137;-41
2023/04/03 04:52:16;;;;;;;4.70;2.90;;;;;;;-0.97;79.46;99844.45;107785;1308;22290;-38
2023/04/03 04:54:41;;;;;;;6.60;2.70;;;;;;;-1.01;79.82;99852.02;107801;1308;22318;-40
2023/04/03 04:57:06;;;;;;;5.40;2.70;;;;;;;-1.06;79.62;99853.05;107804;1308;22216;-41
2023/04/03 04:59:32;;;;;;;5.60;2.70;;;;;;;-1.17;79.82;99853.73;107802;1308;22230;-39
2023/04/03 05:01:57;;;;;;;3.00;2.50;;;;;;;-1.17;79.82;99852.54;107808;1308;22375;-42
2023/04/03 05:04:22;;;;;;;6.20;2.80;;;;;;;-1.29;80.12;99854.06;107824;1308;22310;-36
2023/04/03 05:06:48;;;;;;;11.80;2.60;;;;;;;-1.34;80.40;99863.17;107788;1308;22269;-41
2023/04/03 05:09:14;;;;;;;5.20;2.30;;;;;;;-1.30;80.22;99860.42;107778;1308;22402;-43
2023/04/03 05:11:39;;;;;;;7.80;2.20;;;;;;;-1.33;80.24;99865.58;107818;1308;22418;-44
2023/04/03 05:14:06;;;;;;;6.10;2.60;;;;;;;-1.31;80.36;99867.65;107823;1308;22627;-41
2023/04/03 05:16:32;;;;;;;7.50;2.60;;;;;;;-1.38;80.34;99868.31;107797;1308;22486;-45
2023/04/03 05:18:57;;;;;;;3.80;2.40;;;;;;;-1.32;80.46;99865.92;107790;1308;22252;-41
2023/04/03 05:21:24;;;;;;;3.80;2.40;;;;;;;-1.29;80.39;99866.10;107766;1308;22231;-43
2023/04/03 05:23:50;;;;;;;7.20;1.90;;;;;;;-1.33;80.43;99871.25;107769;1308;22257;-42
2023/04/03 05:26:15;;;;;;;4.00;2.30;;;;;;;-1.29;80.54;99865.92;107801;1308;22493;-43
2023/04/03 05:28:41;;;;;;;6.10;2.50;;;;;;;-1.22;80.57;99870.92;107787;1308;22231;-41
2023/04/03 05:31:06;;;;;;;5.90;2.70;;;;;;;-1.23;80.04;99873.69;107773;1308;22412;-39
2023/04/03 05:33:32;;;;;;;5.50;2.90;;;;;;;-1.19;79.90;99871.96;107785;1308;22223;-44
2023/04/03 05:36:03;;;;;;;6.00;2.80;;;;;;;-1.08;79.85;99873.20;107762;1308;22221;-40
2023/04/03 05:38:28;;;;;;;5.80;2.70;;;;;;;-1.09;79.69;99877.32;107793;1308;22222;-43
2023/04/03 05:40:54;;;;;;;8.20;2.80;;;;;;;-1.05;79.29;99876.98;107786;1305;22444;-41
2023/04/03 05:43:19;;;;;;;6.90;3.20;;;;;;;-1.07;79.12;99879.91;107759;1308;22236;-42
2023/04/03 05:45:44;;;;;;;7.40;3.10;;;;;;;-1.12;79.48;99881.95;107760;1308;23251;-44
2023/04/03 05:48:10;;;;;;;4.20;2.80;;;;;;;-1.03;79.72;99879.73;107778;1308;22226;-42
2023/04/03 05:50:41;;;;;;;5.90;2.90;;;;;;;-0.98;79.32;99884.90;107770;1308;23044;-38
2023/04/03 05:53:07;;;;;;;7.00;3.10;;;;;;;-1.04;78.93;99884.89;107787;1308;22464;-41
2023/04/03 05:55:32;;;;;;;6.00;3.00;;;;;;;-1.03;78.99;99883.02;107774;1308;22241;-42
2023/04/03 05:57:57;;;;;;;7.50;3.10;;;;;;;-0.97;79.01;99883.02;107753;1308;22261;-38
2023/04/03 06:00:23;;;;;;;10.50;3.90;;;;;;;-0.84;78.94;99880.96;107741;1308;22225;-38
2023/04/03 06:02:48;;;;;;;5.10;2.90;;;;;;;-0.82;78.34;99886.80;107747;1308;22226;-41
2023/04/03 06:05:14;;;;;;;6.60;3.40;;;;;;;-0.84;77.86;99882.84;107747;1308;23296;-42
2023/04/03 06:07:40;;;;;;;9.10;3.70;;;;;;;-0.81;77.62;99886.46;107741;1308;22392;-43
2023/04/03 06:10:06;;;;;;;6.70;3.30;;;;;;;-0.80;77.47;99886.46;107740;1308;22191;-39
2023/04/03 06:12:32;;;;;;;5.50;3.20;;;;;;;-0.77;76.94;99893.02;107738;1308;22234;-42
2023/04/03 06:14:57;;;;;;;11.00;3.90;;;;;;;-0.81;77.08;99890.25;107787;1308;22301;-40
2023/04/03 06:17:23;;;;;;;7.10;3.00;;;;;;;-0.73;77.25;99890.27;107721;1308;22229;-45
2023/04/03 06:19:49;;;;;;;9.00;3.40;;;;;;;-0.67;76.71;99889.74;107786;1308;22220;-43
2023/04/03 06:22:14;;;;;;;5.80;3.40;;;;;;;-0.69;75.80;99895.77;107750;1308;23137;-41
2023/04/03 06:24:40;;;;;;;5.30;2.80;;;;;;;-0.68;76.11;99895.94;107760;1308;22440;-43
2023/04/03 06:27:05;;;;;;;5.70;3.20;;;;;;;-0.71;75.66;99899.73;107733;1308;22386;-39
2023/04/03 06:29:31;;;;;;;6.60;3.30;;;;;;;-0.70;75.39;99901.45;107726;1308;22241;-40
2023/04/03 06:31:56;;;;;;;5.90;3.50;;;;;;;-0.66;75.33;99904.03;107733;1308;22225;-42
2023/04/03 06:34:22;;;;;;;5.30;2.90;;;;;;;-0.58;75.64;99909.20;107735;1308;22228;-41
2023/04/03 06:36:48;;;;;;;3.60;2.40;;;;;;;-0.53;74.74;99913.34;107741;1308;22912;-43
2023/04/03 06:39:20;;;;;;;4.00;2.50;;;;;;;-0.56;74.49;99914.02;107755;1308;22409;-43
2023/04/03 06:41:46;;;;;;;8.40;2.90;;;;;;;-0.48;74.45;99914.53;107750;1308;22430;-40
2023/04/03 06:44:13;;;;;;;4.70;2.50;;;;;;;-0.40;74.36;99916.60;107720;1308;22475;-43
2023/04/03 06:46:38;;;;;;;7.80;2.90;;;;;;;-0.45;73.17;99926.77;107767;1308;22615;-41
2023/04/03 06:49:04;;;;;;;7.80;2.60;;;;;;;-0.49;72.67;99922.81;107744;1308;22350;-41
2023/04/03 06:51:30;;;;;;;5.60;2.50;;;;;;;-0.40;73.71;99924.02;107747;1308;22829;-41
2023/04/03 06:53:59;;;;;;;6.70;2.80;;;;;;;-0.38;73.24;99927.11;107767;1308;22241;-40
2023/04/03 06:56:26;;;;;;;6.10;2.60;;;;;;;-0.38;72.66;99924.36;107731;1308;22388;-39
2023/04/03 06:58:54;;;;;;;7.60;3.00;;;;;;;-0.30;72.43;99924.69;107752;1308;22398;-39
2023/04/03 07:01:20;;;;;;;8.90;3.10;;;;;;;-0.28;72.49;99928.14;107781;1308;22214;-44
2023/04/03 07:03:47;;;;;;;4.60;2.80;;;;;;;-0.26;72.31;99931.07;107737;1308;23141;-39
2023/04/03 07:06:13;;;;;;;;;;;;;;;-0.22;72.21;99933.64;107751;1308;22435;-42
2023/04/03 07:08:40;;;;;;;6.70;3.00;;;;;;;-0.15;72.23;99937.43;107755;1308;22370;-45
2023/04/03 07:11:05;;;;;;;5.00;2.90;;;;;;;-0.14;70.61;99940.36;107734;1308;22401;-42
2023/04/03 07:13:32;;;;;;;7.20;2.70;;;;;;;-0.10;69.68;99939.65;107746;1308;22233;-39
2023/04/03 07:15:58;;;;;;;10.60;3.00;;;;;;;-0.07;69.55;99939.83;107585;1308;22409;-38
2023/04/03 07:18:24;;;;;;;6.60;2.20;;;;;;;0.01;69.19;99944.64;107734;1308;22194;-41
2023/04/03 07:20:50;;;;;;;8.50;3.00;;;;;;;0.08;68.74;99948.94;107756;1308;22991;-38
2023/04/03 07:23:15;;;;;;;6.20;3.10;;;;;;;0.16;68.77;99952.20;107741;1308;22206;-41
2023/04/03 07:25:46;;;;;;;6.10;3.40;;;;;;;0.22;68.32;99957.36;107744;1308;22133;-41
2023/04/03 07:28:12;;;;;;;2.90;1.90;;;;;;;0.24;66.20;99963.21;107773;1308;22245;-42
2023/04/03 07:30:48;;;;;;;7.10;2.30;;;;;;;0.23;65.60;99958.90;107805;1308;22435;-39
2023/04/03 07:33:15;;;;;;;6.80;2.20;;;;;;;0.24;65.71;99963.21;107603;1308;22221;-43
2023/04/03 07:35:42;;;;;;;6.40;3.20;;;;;;;0.29;65.78;99966.82;107420;1308;22523;-41
2023/04/03 07:38:13;;;;;;;7.00;2.90;;;;;;;0.34;65.70;99966.63;107830;1308;22705;-41
2023/04/03 07:40:39;;;;;;;7.60;2.20;;;;;;;0.38;65.30;99968.52;107780;1308;22370;-39
2023/04/03 07:43:09;;;;;;;3.80;2.60;;;;;;;0.62;65.18;99975.69;107711;1308;22231;-41
2023/04/03 07:45:35;;;;;;;4.40;2.70;;;;;;;0.80;63.22;99976.64;107604;1308;22246;-42
2023/04/03 07:48:01;;;;;;;10.00;2.70;;;;;;;0.96;62.98;99981.05;107807;1308;22232;-42
2023/04/03 07:50:27;;;;;;;5.40;2.80;;;;;;;1.16;62.33;99978.02;107791;1308;22229;-40
2023/04/03 07:52:54;;;;;;;6.00;2.60;;;;;;;1.23;61.32;99981.60;107771;1308;23010;-43
2023/04/03 07:55:19;;;;;;;13.00;5.00;;;;;;;1.25;61.10;99985.04;107787;1308;22385;-41
2023/04/03 07:57:45;;;;;;;10.30;3.50;;;;;;;1.56;61.40;99985.34;107788;1308;23244;-38
2023/04/03 08:00:12;;;;;;;5.00;2.70;;;;;;;1.75;60.54;99983.13;107793;1308;22255;-45
2023/04/03 08:02:37;;;;;;;6.80;2.40;;;;;;;1.80;59.37;99990.68;107809;1308;22410;-42
2023/04/03 08:05:03;;;;;;;5.50;2.20;;;;;;;1.60;58.22;99993.79;107782;1308;22211;-42
2023/04/03 08:07:29;;;;;;;6.40;2.20;;;;;;;1.51;58.07;99994.71;107602;1308;23204;-39
2023/04/03 08:09:54;;;;;;;7.70;2.30;;;;;;;1.47;57.89;99988.85;107837;1308;22300;-41
2023/04/03 08:12:19;;;;;;;5.00;1.80;;;;;;;1.68;57.89;99994.08;107795;1308;22412;-46
2023/04/03 08:14:45;;;;;;;3.60;1.80;;;;;;;1.73;57.55;99994.73;107797;1308;22269;-41
2023/04/03 08:17:11;;;;;;;4.00;1.90;;;;;;;1.92;58.53;99996.12;107791;1301;22399;-46
2023/04/03 08:19:40;;;;;;;7.20;2.30;;;;;;;2.08;58.79;99995.11;107776;1308;22218;-41
2023/04/03 08:22:06;;;;;;;5.90;2.30;;;;;;;2.07;58.26;99999.96;107795;1308;22228;-43
2023/04/03 08:24:33;;;;;;;7.60;4.30;;;;;;;2.01;57.73;100001.05;107811;1308;22215;-43
2023/04/03 08:27:02;;;;;;;6.00;2.40;;;;;;;1.99;58.27;100002.46;107766;1308;22245;-43
2023/04/03 08:29:27;;;;;;;7.00;2.90;;;;;;;1.89;57.69;100000.64;107797;1308;22253;-37
2023/04/03 08:31:53;;;;;;;4.90;2.30;;;;;;;1.89;57.59;100004.45;107792;1308;22245;-44
2023/04/03 08:34:19;;;;;;;3.90;2.10;;;;;;;1.75;57.36;100006.98;107759;1293;22451;-41
2023/04/03 08:36:45;;;;;;;11.30;3.00;;;;;;;1.86;57.63;100012.95;107705;1308;22235;-42
2023/04/03 08:39:11;;;;;;;6.20;2.30;;;;;;;1.70;57.80;100020.15;107728;1300;23119;-41
2023/04/03 08:41:39;;;;;;;7.70;3.30;;;;;;;1.82;57.61;100016.61;107717;1308;22477;-48
2023/04/03 08:44:12;;;;;;;4.30;2.30;;;;;;;1.81;57.26;100020.77;107686;1301;23026;-46
2023/04/03 08:46:52;;;;;;;4.00;2.30;;;;;;;1.86;58.08;100022.63;107742;1308;22148;-42
2023/04/03 08:49:57;;;;;;;4.40;2.10;;;;;;;1.78;57.52;100021.30;107729;1294;22261;-44
2023/04/03 08:52:48;;;;;;;4.60;2.00;;;;;;;1.83;58.29;100018.84;107678;1308;22995;-44
2023/04/03 08:55:19;;;;;;;2.60;1.80;;;;;;;1.82;57.34;100027.33;107625;1303;22491;-44
2023/04/03 08:57:48;;;;;;;9.60;2.00;;;;;;;1.88;57.97;100021.59;107695;1304;22257;-45
2023/04/03 09:00:13;;;;;;;3.40;2.00;;;;;;;1.91;58.07;100021.55;107663;1302;22373;-44
2023/04/03 09:02:46;;;;;;;3.40;2.20;;;;;;;2.11;58.69;100023.96;107623;1308;22234;-40
2023/04/03 09:05:15;;;;;;;6.00;2.00;;;;;;;2.39;58.44;100016.60;107729;1308;22760;-50
2023/04/03 09:07:56;;;;;;;3.40;1.80;;;;;;;2.62;58.10;100019.48;107713;1293;22367;-40
2023/04/03 09:10:31;;;;;;;9.30;2.10;;;;;;;2.63;57.17;100016.34;107708;1307;22383;-49
2023/04/03 09:13:08;;;;;;;5.30;2.40;;;;;;;2.68;56.43;100019.23;107720;1307;22412;-46
2023/04/03 09:15:34;;;;;;;5.20;1.80;;;;;;;2.80;56.66;100013.04;107722;1308;22250;-43
2023/04/03 09:18:05;;;;;;;5.40;1.80;;;;;;;2.97;56.90;100015.60;107788;1308;22281;-46
2023/04/03 09:20:49;;;;;;;4.70;2.00;;;;;;;2.76;54.55;100023.63;107813;1307;23003;-45
2023/04/03 09:23:44;;;;;;;3.30;1.70;;;;;;;2.66;54.32;100021.86;107781;1308;22205;-43
2023/04/03 09:26:19;;;;;;;7.80;2.10;;;;;;;3.13;54.12;100016.77;107764;1308;22241;-44
2023/04/03 09:28:45;;;;;;;4.50;1.80;;;;;;;3.33;53.07;100021.02;107937;1302;23062;-41
2023/04/03 09:31:20;;;;;;;2.30;1.60;;;;;;;3.59;53.61;100013.36;108002;1307;22359;-41
2023/04/03 09:33:47;;;;;;;4.80;1.90;;;;;;;3.76;54.09;100015.88;108003;1307;22260;-43
2023/04/03 09:36:13;;;;;;;6.10;1.70;;;;;;;3.90;53.98;100019.80;107819;1294;23206;-43
2023/04/03 09:38:38;;;;;;;8.30;2.00;;;;;;;4.04;53.88;100016.10;107868;1302;22411;-40
2023/04/03 09:41:15;;;;;;;3.30;2.00;;;;;;;4.09;53.59;100023.31;107879;1307;22872;-48
2023/04/03 09:43:52;;;;;;;9.60;2.30;;;;;;;4.14;52.42;100021.48;107735;1286;22228;-43
2023/04/03 09:46:34;;;;;;;5.80;2.00;;;;;;;4.27;52.89;100014.14;107617;1308;22261;-45
2023/04/03 09:49:05;;;;;;;2.90;1.90;;;;;;;4.72;51.65;100025.11;107594;1304;22235;-42
2023/04/03 09:51:31;;;;;;;3.70;1.80;;;;;;;4.76;49.31;100025.20;107738;1304;22266;-47
2023/04/03 09:53:57;;;;;;;3.90;1.70;;;;;;;5.51;50.18;100026.21;107578;1308;22555;-49
2023/04/03 09:56:26;;;;;;;7.40;1.90;;;;;;;5.47;48.59;100028.94;107692;1303;22286;-49
2023/04/03 09:58:58;;;;;;;11.20;4.00;;;;;;;5.33;49.81;100026.98;107674;1308;22256;-45
2023/04/03 10:01:26;;;;;;;16.60;4.60;;;;;;;5.30;48.67;100025.65;107609;1304;22361;-47
2023/04/03 10:04:05;;;;;;;6.60;3.00;;;;;;;5.20;49.40;100026.05;107597;1302;22429;-46
2023/04/03 10:06:35;;;;;;;8.40;2.90;;;;;;;4.72;48.50;100032.23;107725;1308;22971;-48
2023/04/03 10:09:15;;;;;;;4.20;1.80;;;;;;;4.47;49.23;100035.99;107705;1308;22431;-39
2023/04/03 10:11:58;;;;;;;5.40;2.10;;;;;;;4.05;48.45;100040.71;107596;1309;22241;-45
2023/04/03 10:14:23;;;;;;;3.10;2.00;;;;;;;4.37;47.90;100029.24;107680;1301;22424;-44
2023/04/03 10:17:02;;;;;;;4.00;2.00;;;;;;;4.79;47.44;100029.33;107575;1303;22462;-43
2023/04/03 10:19:42;;;;;;;7.10;2.50;;;;;;;5.18;48.18;100026.94;107609;1289;22385;-43
2023/04/03 10:22:18;;;;;;;6.20;2.50;;;;;;;4.89;46.63;100025.48;107556;1303;22242;-46
2023/04/03 10:25:02;;;;;;;2.90;1.90;;;;;;;4.89;46.67;100027.55;107652;1308;22281;-47
2023/04/03 10:27:46;;;;;;;3.30;1.70;;;;;;;5.25;45.94;100033.41;107393;1309;22355;-45
2023/04/03 10:30:24;;;;;;;3.30;1.70;;;;;;;5.87;44.71;100023.65;107515;1309;22938;-44
2023/04/03 10:33:08;;;;;;;6.40;2.00;;;;;;;6.61;43.70;100017.05;107614;1309;23155;-44
2023/04/03 10:35:49;;;;;;;7.80;1.90;;;;;;;7.44;43.13;100007.68;107273;1305;22427;-47
2023/04/03 10:38:20;;;;;;;2.50;1.50;;;;;;;6.97;42.33;100013.80;107487;1309;22502;-41
2023/04/03 10:40:56;;;;;;;6.60;2.20;;;;;;;6.83;42.03;100007.42;107494;1309;22367;-47
2023/04/03 10:43:44;;;;;;;3.90;1.90;;;;;;;6.80;42.03;100012.55;107669;1300;22334;-47
2023/04/03 10:46:21;;;;;;;5.20;1.60;;;;;;;6.22;41.36;100020.70;107720;1301;22258;-45
2023/04/03 10:49:01;;;;;;;;;;;;;;;5.49;42.06;100022.61;107742;1301;23118;-49
2023/04/03 10:51:41;;;;;;;5.00;1.40;;;;;;;5.35;42.75;100024.49;107695;1301;22366;-45
2023/04/03 10:54:24;;;;;;;2.40;1.60;;;;;;;6.22;42.40;100020.50;107708;1301;22441;-47
2023/04/03 10:56:55;;;;;;;2.90;2.00;;;;;;;7.16;40.19;100011.49;107711;1301;22340;-51
2023/04/03 10:59:41;;;;;;;1.80;1.60;;;;;;;7.85;39.37;100013.20;107710;1301;22639;-48
2023/04/03 11:02:18;;;;;;;2.60;1.80;;;;;;;9.10;39.30;100009.00;107682;1301;22543;-50
2023/04/03 11:04:47;;;;;;;3.40;1.90;;;;;;;10.33;36.71;99999.52;107528;1303;23010;-46
2023/04/03 11:07:18;;;;;;;4.50;2.50;;;;;;;10.76;34.08;100000.17;107888;1307;22249;-46
2023/04/03 11:09:48;;;;;;;2.90;1.60;;;;;;;10.61;35.12;100002.56;107325;1307;22387;-47
2023/04/03 11:12:36;;;;;;;6.10;2.20;;;;;;;10.47;34.46;99995.99;107965;1307;23017;-48
2023/04/03 11:15:02;;;;;;;5.60;1.90;;;;;;;10.44;34.00;99997.70;107858;1307;22241;-48
2023/04/03 11:17:38;;;;;;;4.00;2.10;;;;;;;9.39;35.01;99996.15;107783;1307;22111;-45
2023/04/03 11:20:14;;;;;;;3.10;1.30;;;;;;;8.82;36.20;99996.29;107737;1302;22255;-47
2023/04/03 11:22:47;;;;;;;5.70;1.60;;;;;;;9.15;35.03;99997.31;107950;1307;23085;-44
2023/04/03 11:25:12;;;;;;;19.10;2.40;;;;;;;10.22;34.95;99991.55;107946;1307;22437;-43
2023/04/03 11:27:45;;;;;;;3.90;1.80;;;;;;;11.03;33.01;99989.11;107833;1293;22250;-45
2023/04/03 11:30:59;;;;;;;2.00;1.70;;;;;;;10.68;33.43;99989.42;107990;1307;22453;-48
2023/04/03 11:33:41;;;;;;;2.80;1.50;;;;;;;10.51;32.82;99982.49;107400;1312;23422;-48